Bishopthorpe, United Kingdom
Current Conditions -  °F | °C
As of 5:50 PM on Thursday 23 Oct 2014 (Local Time) from EGXU Reporting Station
Broken Clouds Broken Clouds  
Wind Chill: 61°   Ceiling: 9000
Heat Index: 61°   Visibility: 6mi
Dew Point: 54°   Wind: 12mph
Humidity: 77%   Direction: 210°SSW
Pressure: 29.85"   Gusts: NA
Location:  53.92°N, 1.1°W
Report Text: EGXU 231650Z AUTO 21010KT 9999 // FEW024/// BKN090/// 16/12 Q1011
Loading
Personal Weather Stations






























Interactive Weather Map
Tropical Storm Tracking
New forecast layout! Learn more

10-Day Weather Forecast

Advertisements
Track Severe Weather on mobile